Time;durP1;ratioP1;P1;durP2;ratioP2;P2;SDS_P1;SDS_P2;PMS_P1;PMS_P2;Temp;Humidity;BMP_temperature;BMP_pressure;BME280_temperature;BME280_humidity;BME280_pressure;Samples;Min_cycle;Max_cycle;Signal;HPM_P1;HPM_P2
2022/03/31 00:00:57;;;;;;;2.50;2.35;;;4.30;99.90;;;;;;5037893;28;20222;-69
2022/03/31 00:03:25;;;;;;;2.50;2.30;;;4.40;99.90;;;;;;5037389;28;20722;-70
2022/03/31 00:05:53;;;;;;;3.00;2.42;;;4.40;99.90;;;;;;5027830;28;20286;-68
2022/03/31 00:08:21;;;;;;;2.25;2.10;;;4.40;99.90;;;;;;5018397;28;20204;-68
2022/03/31 00:10:52;;;;;;;1.83;1.75;;;4.40;99.90;;;;;;5034829;28;20226;-68
2022/03/31 00:13:23;;;;;;;2.50;2.15;;;4.40;99.90;;;;;;5037568;28;20856;-68
2022/03/31 00:15:53;;;;;;;3.05;2.90;;;4.50;99.90;;;;;;5039298;28;20201;-67
2022/03/31 00:18:22;;;;;;;2.33;2.22;;;4.50;99.90;;;;;;5040144;28;20712;-67
2022/03/31 00:20:50;;;;;;;3.33;2.05;;;4.50;99.90;;;;;;5039644;28;20727;-67
2022/03/31 00:23:17;;;;;;;2.65;2.53;;;4.50;99.90;;;;;;5038900;28;20202;-67
2022/03/31 00:25:45;;;;;;;2.63;2.42;;;4.50;99.90;;;;;;5037880;28;20213;-66
2022/03/31 00:28:13;;;;;;;2.00;1.90;;;4.50;99.90;;;;;;5037699;28;20890;-68
2022/03/31 00:30:43;;;;;;;3.90;3.38;;;4.50;99.90;;;;;;5030572;28;20230;-69
2022/03/31 00:33:11;;;;;;;4.30;2.92;;;4.50;99.90;;;;;;5022205;28;20282;-68
2022/03/31 00:35:39;;;;;;;3.55;3.25;;;4.50;99.90;;;;;;5022019;28;20285;-69
2022/03/31 00:38:07;;;;;;;3.25;2.90;;;4.50;99.90;;;;;;5022323;28;20313;-67
2022/03/31 00:40:35;;;;;;;3.25;3.00;;;4.40;99.90;;;;;;5029679;28;20323;-67
2022/03/31 00:43:03;;;;;;;4.82;3.38;;;4.40;99.90;;;;;;5023937;28;20210;-65
2022/03/31 00:45:34;;;;;;;3.92;3.58;;;4.30;99.90;;;;;;5021823;28;20210;-69
2022/03/31 00:48:05;;;;;;;3.95;3.33;;;4.20;99.90;;;;;;5022023;28;20195;-68
2022/03/31 00:50:34;;;;;;;3.55;3.25;;;4.10;99.90;;;;;;5021883;28;20271;-67
2022/03/31 00:53:01;;;;;;;4.32;3.63;;;4.10;99.90;;;;;;5021458;28;20208;-65
2022/03/31 00:55:49;;;;;;;5.10;3.78;;;4.00;99.90;;;;;;5021551;28;20213;-68
2022/03/31 00:58:18;;;;;;;3.25;2.95;;;4.00;99.90;;;;;;5021554;28;20218;-69
2022/03/31 01:00:47;;;;;;;4.57;3.42;;;4.00;99.90;;;;;;5021303;28;20946;-68
2022/03/31 01:03:17;;;;;;;4.00;3.22;;;4.00;99.90;;;;;;5021719;28;20207;-69
2022/03/31 01:05:45;;;;;;;4.55;3.70;;;3.90;99.90;;;;;;5021522;28;20294;-68
2022/03/31 01:08:13;;;;;;;4.97;4.18;;;3.80;99.90;;;;;;5020996;28;20229;-69
2022/03/31 01:10:41;;;;;;;3.40;3.20;;;3.80;99.90;;;;;;5021808;28;20292;-69
2022/03/31 01:13:09;;;;;;;4.00;3.72;;;3.70;99.90;;;;;;5021930;28;20204;-68
2022/03/31 01:15:37;;;;;;;6.25;5.65;;;3.50;99.90;;;;;;5021196;28;20237;-69
2022/03/31 01:18:06;;;;;;;4.13;3.80;;;3.50;99.90;;;;;;5020982;28;20222;-69
2022/03/31 01:20:36;;;;;;;3.75;3.45;;;3.60;99.90;;;;;;5021275;28;20399;-69
2022/03/31 01:23:10;;;;;;;5.50;4.93;;;3.60;99.90;;;;;;5020831;28;20570;-69
2022/03/31 01:25:38;;;;;;;4.68;4.28;;;3.50;99.90;;;;;;5021197;28;20210;-68
2022/03/31 01:28:06;;;;;;;6.70;3.70;;;3.50;99.90;;;;;;5020797;28;20665;-68
2022/03/31 01:30:35;;;;;;;6.50;3.85;;;3.40;99.90;;;;;;5020822;28;20842;-69
2022/03/31 01:33:03;;;;;;;5.90;4.72;;;3.40;99.90;;;;;;5022108;28;20822;-69
2022/03/31 01:35:30;;;;;;;6.32;5.75;;;3.40;99.90;;;;;;5020398;28;20754;-69
2022/03/31 01:37:58;;;;;;;5.15;4.65;;;3.40;99.90;;;;;;5020469;28;20217;-69
2022/03/31 01:40:27;;;;;;;8.63;4.25;;;3.30;99.90;;;;;;5022739;28;20228;-69
2022/03/31 01:42:56;;;;;;;4.53;4.28;;;3.30;99.90;;;;;;5022608;28;20420;-69
2022/03/31 01:45:24;;;;;;;5.25;4.28;;;3.20;99.90;;;;;;5023599;28;20206;-69
2022/03/31 01:47:52;;;;;;;5.03;4.00;;;3.30;99.90;;;;;;5024128;28;20207;-68
2022/03/31 01:50:19;;;;;;;4.25;3.95;;;3.30;99.90;;;;;;5024669;28;20718;-67
2022/03/31 01:52:47;;;;;;;5.35;4.57;;;3.40;99.90;;;;;;5022433;28;20202;-68
2022/03/31 01:55:15;;;;;;;4.90;4.50;;;3.30;99.90;;;;;;5022653;28;20206;-68
2022/03/31 01:57:44;;;;;;;5.10;4.60;;;3.30;99.90;;;;;;5022647;28;20203;-69
2022/03/31 02:00:13;;;;;;;5.07;4.47;;;3.20;99.90;;;;;;5022702;28;20241;-68
2022/03/31 02:02:42;;;;;;;5.78;5.22;;;3.20;99.90;;;;;;5022313;28;20206;-68
2022/03/31 02:05:10;;;;;;;6.25;5.50;;;3.20;99.90;;;;;;5021424;28;20296;-68
2022/03/31 02:07:39;;;;;;;6.88;5.25;;;3.20;99.90;;;;;;5020001;28;20202;-68
2022/03/31 02:10:10;;;;;;;5.45;4.85;;;3.20;99.90;;;;;;5019975;28;20246;-68
2022/03/31 02:12:38;;;;;;;5.45;4.80;;;3.20;99.90;;;;;;5020486;28;20194;-68
2022/03/31 02:15:10;;;;;;;5.70;5.00;;;3.20;99.90;;;;;;5020165;28;20198;-68
2022/03/31 02:17:37;;;;;;;6.30;5.70;;;3.20;99.90;;;;;;5020003;28;20202;-69
2022/03/31 02:20:06;;;;;;;5.30;4.90;;;3.20;99.90;;;;;;5019997;28;20456;-68
2022/03/31 02:22:34;;;;;;;6.82;4.70;;;3.20;99.90;;;;;;5019730;28;20203;-68
2022/03/31 02:25:02;;;;;;;7.35;5.30;;;3.20;99.90;;;;;;5019606;28;20216;-69
2022/03/31 02:27:30;;;;;;;4.85;4.45;;;3.20;99.90;;;;;;5019249;28;20387;-69
2022/03/31 02:29:58;;;;;;;6.45;5.30;;;3.10;99.90;;;;;;5019304;28;20248;-69
2022/03/31 02:32:28;;;;;;;4.72;4.32;;;3.10;99.90;;;;;;5019748;28;20293;-69
2022/03/31 02:34:56;;;;;;;5.60;5.10;;;3.10;99.90;;;;;;5019356;28;20198;-69
2022/03/31 02:37:24;;;;;;;9.40;5.40;;;3.10;99.90;;;;;;5019136;28;20207;-68
2022/03/31 02:39:52;;;;;;;6.65;4.85;;;3.00;99.90;;;;;;5019306;28;20824;-68
2022/03/31 02:42:20;;;;;;;7.47;5.32;;;3.00;99.90;;;;;;5019049;28;20213;-68
2022/03/31 02:44:50;;;;;;;7.80;5.47;;;3.00;99.90;;;;;;5019175;28;20213;-68
2022/03/31 02:47:18;;;;;;;9.13;5.88;;;2.90;99.90;;;;;;5019278;28;20205;-68
2022/03/31 02:49:47;;;;;;;7.30;4.97;;;2.90;99.90;;;;;;5019602;28;20205;-68
2022/03/31 02:52:15;;;;;;;10.55;5.93;;;2.80;99.90;;;;;;5019322;28;20281;-67
2022/03/31 02:57:28;;;;;;;6.90;6.18;;;2.80;99.90;;;;;;5019478;28;20202;-66
2022/03/31 02:59:57;;;;;;;6.68;5.63;;;2.80;99.90;;;;;;5018445;28;20233;-67
2022/03/31 03:02:29;;;;;;;9.23;5.47;;;2.80;99.90;;;;;;5019295;28;20259;-68
2022/03/31 03:04:58;;;;;;;7.10;6.40;;;2.80;99.90;;;;;;5019105;28;20292;-66
2022/03/31 03:07:29;;;;;;;7.40;6.20;;;2.80;99.90;;;;;;5019673;28;20247;-67
2022/03/31 03:09:58;;;;;;;9.02;6.65;;;2.80;99.90;;;;;;5019260;28;20219;-67
2022/03/31 03:12:26;;;;;;;7.80;6.20;;;2.80;99.90;;;;;;5019050;28;20682;-72
2022/03/31 03:14:54;;;;;;;7.38;6.43;;;2.70;99.90;;;;;;5018973;28;20875;-67
2022/03/31 03:17:22;;;;;;;7.50;6.85;;;2.60;99.90;;;;;;5018844;28;20206;-67
2022/03/31 03:19:50;;;;;;;9.65;7.10;;;2.60;99.90;;;;;;5018832;28;20238;-67
2022/03/31 03:22:19;;;;;;;9.15;7.32;;;2.50;99.90;;;;;;5018973;28;20293;-68
2022/03/31 03:24:47;;;;;;;9.40;6.90;;;2.50;99.90;;;;;;5018484;28;20276;-67
2022/03/31 03:27:15;;;;;;;9.10;6.68;;;2.40;99.90;;;;;;5018973;28;20206;-69
2022/03/31 03:29:46;;;;;;;8.73;7.93;;;2.40;99.90;;;;;;5019350;28;20287;-70
2022/03/31 03:32:15;;;;;;;10.57;8.90;;;2.40;99.90;;;;;;5018143;28;20233;-70
2022/03/31 03:34:43;;;;;;;9.90;7.43;;;2.40;99.90;;;;;;5018464;28;20289;-70
2022/03/31 03:37:11;;;;;;;8.30;7.45;;;2.30;99.90;;;;;;5018396;28;20212;-68
2022/03/31 03:39:40;;;;;;;7.95;7.15;;;2.30;99.90;;;;;;5018384;28;20222;-68
2022/03/31 03:42:08;;;;;;;8.90;8.00;;;2.20;99.90;;;;;;5018512;28;20206;-68
2022/03/31 03:44:36;;;;;;;8.77;7.68;;;2.10;99.90;;;;;;5019574;28;20203;-67
2022/03/31 03:47:04;;;;;;;7.85;7.15;;;2.10;99.90;;;;;;5019353;28;20202;-68
2022/03/31 03:49:33;;;;;;;9.60;7.63;;;2.10;99.90;;;;;;5018709;28;20198;-68
2022/03/31 03:52:00;;;;;;;7.90;7.03;;;2.00;99.90;;;;;;5018332;28;20206;-68
2022/03/31 03:54:28;;;;;;;10.25;8.82;;;2.00;99.90;;;;;;5018660;28;20206;-69
2022/03/31 03:56:57;;;;;;;9.07;8.15;;;2.00;99.90;;;;;;5018723;28;20202;-69
2022/03/31 03:59:25;;;;;;;9.30;7.50;;;1.90;99.90;;;;;;5018688;28;20219;-68
2022/03/31 04:01:53;;;;;;;9.02;8.13;;;1.80;99.90;;;;;;5019271;28;20215;-68
2022/03/31 04:04:21;;;;;;;8.20;7.30;;;1.80;99.90;;;;;;5021300;28;20267;-67
2022/03/31 04:06:50;;;;;;;8.98;7.70;;;1.70;99.90;;;;;;5039805;28;20457;-68
2022/03/31 04:09:18;;;;;;;9.20;8.30;;;1.70;99.90;;;;;;5038154;28;20373;-68
2022/03/31 04:11:46;;;;;;;7.85;7.05;;;1.60;99.90;;;;;;5037976;28;20740;-69
2022/03/31 04:14:16;;;;;;;10.15;8.27;;;1.50;99.90;;;;;;5039437;28;20688;-68
2022/03/31 04:16:44;;;;;;;10.35;8.30;;;1.50;99.90;;;;;;5039000;28;20204;-69
2022/03/31 04:19:13;;;;;;;10.07;7.82;;;1.50;99.90;;;;;;5037820;28;20211;-69
2022/03/31 04:21:41;;;;;;;11.05;9.07;;;1.50;99.90;;;;;;5026876;28;20293;-69
2022/03/31 04:24:09;;;;;;;8.93;8.13;;;1.50;99.90;;;;;;5019235;28;20705;-68
2022/03/31 04:26:37;;;;;;;9.32;8.32;;;1.50;99.90;;;;;;5020165;28;20202;-70
2022/03/31 04:29:09;;;;;;;11.90;7.53;;;1.50;99.90;;;;;;5019003;28;20785;-68
2022/03/31 04:31:40;;;;;;;9.38;8.38;;;1.50;99.90;;;;;;5020169;28;20233;-69
2022/03/31 04:34:09;;;;;;;9.70;8.80;;;1.50;99.90;;;;;;5019965;28;20925;-69
2022/03/31 04:36:40;;;;;;;8.90;7.97;;;1.40;99.90;;;;;;5019853;28;20202;-70
2022/03/31 04:39:08;;;;;;;8.63;7.72;;;1.40;99.90;;;;;;5019928;28;20203;-70
2022/03/31 04:41:36;;;;;;;9.73;8.23;;;1.40;99.90;;;;;;5019350;28;20218;-70
2022/03/31 04:44:04;;;;;;;9.68;7.88;;;1.30;99.90;;;;;;5026449;28;20203;-73
2022/03/31 04:46:33;;;;;;;8.50;7.30;;;1.30;99.90;;;;;;5023855;28;20216;-71
2022/03/31 04:49:03;;;;;;;8.38;7.63;;;1.40;99.90;;;;;;5018584;28;20214;-69
2022/03/31 04:51:31;;;;;;;9.38;8.35;;;1.30;99.90;;;;;;5018023;28;20903;-68
2022/03/31 04:54:00;;;;;;;8.20;6.90;;;1.30;99.90;;;;;;5018037;28;20268;-69
2022/03/31 04:56:28;;;;;;;8.55;7.35;;;1.30;99.90;;;;;;5018200;28;20205;-69
2022/03/31 04:58:56;;;;;;;9.40;8.50;;;1.30;99.90;;;;;;5027077;28;20237;-69
2022/03/31 05:01:25;;;;;;;7.72;6.82;;;1.30;99.90;;;;;;5037662;28;20940;-69
2022/03/31 05:03:54;;;;;;;8.32;7.43;;;1.20;99.90;;;;;;5034404;28;20821;-69
2022/03/31 05:06:23;;;;;;;9.57;7.55;;;1.20;99.90;;;;;;5033868;28;20907;-69
2022/03/31 05:08:52;;;;;;;8.77;7.25;;;1.20;99.90;;;;;;5030292;28;20490;-68
2022/03/31 05:11:20;;;;;;;10.85;8.52;;;1.20;99.90;;;;;;5020540;28;20211;-67
2022/03/31 05:13:48;;;;;;;8.95;8.07;;;1.10;99.90;;;;;;5037932;28;20201;-70
2022/03/31 05:16:16;;;;;;;9.38;7.95;;;1.10;99.90;;;;;;5038660;28;20641;-68
2022/03/31 05:18:45;;;;;;;13.73;9.65;;;1.10;99.90;;;;;;5043142;28;20255;-66
2022/03/31 05:21:13;;;;;;;9.00;7.65;;;1.10;99.90;;;;;;5042342;28;20260;-66
2022/03/31 05:23:42;;;;;;;12.50;9.82;;;1.10;99.90;;;;;;5041562;28;20206;-69
2022/03/31 05:26:10;;;;;;;11.13;7.82;;;1.10;99.90;;;;;;5042597;28;20364;-68
2022/03/31 05:28:38;;;;;;;10.38;8.52;;;1.20;99.90;;;;;;5043725;28;20700;-67
2022/03/31 05:31:07;;;;;;;9.40;8.00;;;1.20;99.90;;;;;;5039395;28;20289;-68
2022/03/31 05:33:36;;;;;;;10.32;8.55;;;1.10;99.90;;;;;;5034693;28;20202;-66
2022/03/31 05:36:04;;;;;;;8.90;7.40;;;1.10;99.90;;;;;;5029738;28;20234;-69
2022/03/31 05:38:33;;;;;;;9.70;6.97;;;1.10;99.90;;;;;;5021165;28;20243;-69
2022/03/31 05:41:02;;;;;;;8.13;7.43;;;1.10;99.90;;;;;;5021536;28;20232;-69
2022/03/31 05:43:31;;;;;;;12.23;7.85;;;1.10;99.90;;;;;;5020855;28;20673;-68
2022/03/31 05:45:59;;;;;;;11.00;7.05;;;1.00;99.90;;;;;;5021734;28;20233;-70
2022/03/31 05:48:27;;;;;;;9.02;7.50;;;1.00;99.90;;;;;;5021028;28;20286;-71
2022/03/31 05:50:55;;;;;;;9.52;7.30;;;1.00;99.90;;;;;;5019581;28;20218;-66
2022/03/31 05:53:23;;;;;;;9.65;7.60;;;1.00;99.90;;;;;;5025497;28;20202;-67
2022/03/31 05:55:51;;;;;;;8.32;7.43;;;1.00;99.90;;;;;;5029990;28;20202;-69
2022/03/31 05:58:21;;;;;;;7.63;6.75;;;1.00;99.90;;;;;;5023297;28;20319;-71
2022/03/31 06:00:49;;;;;;;8.52;6.90;;;1.00;99.90;;;;;;5020813;28;20385;-69
2022/03/31 06:03:21;;;;;;;10.98;8.23;;;1.00;99.90;;;;;;5039641;28;20280;-68
2022/03/31 06:05:50;;;;;;;6.55;5.95;;;1.10;99.90;;;;;;5041117;28;20201;-73
2022/03/31 06:08:18;;;;;;;7.68;6.90;;;1.10;99.90;;;;;;5040532;28;20387;-74
2022/03/31 06:10:47;;;;;;;10.75;7.72;;;1.30;99.90;;;;;;5040585;28;20222;-76
2022/03/31 06:13:15;;;;;;;8.60;6.82;;;1.40;99.90;;;;;;5034563;28;20234;-70
2022/03/31 06:15:44;;;;;;;8.60;7.00;;;1.30;99.90;;;;;;5026905;28;20205;-72
2022/03/31 06:18:12;;;;;;;10.27;7.90;;;1.20;99.90;;;;;;5026504;28;20807;-70
2022/03/31 06:20:40;;;;;;;7.80;6.95;;;1.20;99.90;;;;;;5021098;28;20732;-68
2022/03/31 06:23:08;;;;;;;9.52;7.00;;;1.20;99.90;;;;;;5020892;28;20199;-70
2022/03/31 06:25:36;;;;;;;9.30;6.75;;;1.10;99.90;;;;;;5021443;28;20389;-72
2022/03/31 06:28:05;;;;;;;6.93;6.32;;;1.00;99.90;;;;;;5020182;28;20202;-73
2022/03/31 06:30:33;;;;;;;7.57;6.45;;;1.00;99.90;;;;;;5020335;28;21002;-73
2022/03/31 06:33:03;;;;;;;6.85;4.82;;;1.00;99.90;;;;;;5031405;28;20277;-71
2022/03/31 06:35:31;;;;;;;6.93;5.10;;;0.90;99.90;;;;;;5040066;28;20212;-73
2022/03/31 06:37:59;;;;;;;6.65;5.95;;;0.90;99.90;;;;;;5040163;28;20449;-72
2022/03/31 06:40:31;;;;;;;6.28;5.65;;;0.90;99.90;;;;;;5040235;28;20251;-74
2022/03/31 06:42:59;;;;;;;7.72;6.45;;;0.90;99.90;;;;;;5040898;28;20206;-69
2022/03/31 06:45:28;;;;;;;6.55;5.93;;;0.90;99.90;;;;;;5025909;28;20228;-70
2022/03/31 06:48:01;;;;;;;8.00;6.18;;;0.90;99.90;;;;;;5021217;28;20236;-71
2022/03/31 06:50:34;;;;;;;6.35;5.68;;;0.80;99.90;;;;;;5023309;28;20222;-70
2022/03/31 06:53:03;;;;;;;6.53;5.63;;;0.80;99.90;;;;;;5033563;28;20219;-70
2022/03/31 06:55:31;;;;;;;7.95;6.00;;;0.90;99.90;;;;;;5032607;28;20250;-70
2022/03/31 06:57:59;;;;;;;8.15;6.13;;;0.90;99.90;;;;;;5025118;28;20289;-68
2022/03/31 07:00:29;;;;;;;7.47;5.60;;;0.80;99.90;;;;;;5023627;28;20222;-69
2022/03/31 07:02:57;;;;;;;8.32;6.30;;;0.80;99.90;;;;;;5028247;28;20276;-70
2022/03/31 07:05:26;;;;;;;6.93;5.50;;;0.80;99.90;;;;;;5035503;28;20201;-70
2022/03/31 07:07:55;;;;;;;6.75;5.65;;;0.80;99.90;;;;;;5029494;28;20217;-70
2022/03/31 07:10:24;;;;;;;7.15;5.78;;;0.80;99.90;;;;;;5043606;28;20222;-71
2022/03/31 07:12:52;;;;;;;8.15;5.80;;;0.80;99.90;;;;;;5041901;28;20198;-71
2022/03/31 07:15:20;;;;;;;10.35;5.85;;;0.80;99.90;;;;;;5036789;28;20218;-70
2022/03/31 07:17:48;;;;;;;6.82;6.13;;;0.90;99.90;;;;;;5023179;28;20823;-71
2022/03/31 07:20:16;;;;;;;5.38;4.97;;;0.90;99.90;;;;;;5021487;28;20222;-71
2022/03/31 07:22:44;;;;;;;5.75;5.10;;;0.90;99.90;;;;;;5039885;28;20489;-71
2022/03/31 07:25:14;;;;;;;8.05;5.30;;;0.90;99.90;;;;;;5039620;28;20217;-73
2022/03/31 07:27:42;;;;;;;7.18;4.88;;;0.90;99.90;;;;;;5038851;28;20769;-71
2022/03/31 07:30:13;;;;;;;5.88;5.18;;;0.90;99.90;;;;;;5019772;28;20465;-71
2022/03/31 07:32:48;;;;;;;6.60;5.80;;;0.90;99.90;;;;;;5019795;28;20202;-70
2022/03/31 07:35:16;;;;;;;7.00;5.90;;;1.00;99.90;;;;;;5026403;28;20197;-71
2022/03/31 07:37:45;;;;;;;9.60;6.88;;;1.00;99.90;;;;;;5039500;28;20236;-72
2022/03/31 07:40:15;;;;;;;6.32;5.55;;;1.00;99.90;;;;;;5034855;28;20218;-70
2022/03/31 07:42:43;;;;;;;6.28;5.55;;;1.10;99.90;;;;;;5020980;28;20879;-71
2022/03/31 07:45:12;;;;;;;5.72;5.18;;;1.20;99.90;;;;;;5028338;28;20207;-71
2022/03/31 07:47:40;;;;;;;5.97;5.38;;;1.20;99.90;;;;;;5019150;28;20285;-71
2022/03/31 07:50:10;;;;;;;8.60;6.38;;;1.30;99.90;;;;;;5019485;28;20218;-71
2022/03/31 07:52:38;;;;;;;8.95;6.18;;;1.30;99.90;;;;;;5019548;28;20198;-71
2022/03/31 07:55:09;;;;;;;10.77;6.90;;;1.30;99.90;;;;;;5019627;28;20206;-71
2022/03/31 07:57:38;;;;;;;7.18;4.78;;;1.40;99.90;;;;;;5019572;28;20206;-74
2022/03/31 08:00:08;;;;;;;8.32;6.10;;;1.40;99.90;;;;;;5031922;28;20253;-68
2022/03/31 08:02:36;;;;;;;5.65;5.15;;;1.40;99.90;;;;;;5038379;28;20312;-68
2022/03/31 08:05:05;;;;;;;7.10;5.97;;;1.40;99.90;;;;;;5018176;28;20206;-67
2022/03/31 08:07:35;;;;;;;7.25;5.32;;;1.50;99.90;;;;;;5019000;28;20203;-67
2022/03/31 08:10:04;;;;;;;6.50;5.85;;;1.50;99.90;;;;;;5022168;28;20225;-65
2022/03/31 08:12:33;;;;;;;6.50;5.90;;;1.60;99.90;;;;;;5038437;28;20194;-68
2022/03/31 08:15:04;;;;;;;9.52;6.65;;;1.70;99.90;;;;;;5038857;28;20202;-68
2022/03/31 08:17:32;;;;;;;6.15;5.57;;;1.70;99.90;;;;;;5035815;28;20228;-69
2022/03/31 08:20:00;;;;;;;9.10;5.57;;;1.70;99.90;;;;;;5038377;28;20224;-66
2022/03/31 08:22:28;;;;;;;9.27;5.82;;;1.70;99.90;;;;;;5038115;28;20248;-67
2022/03/31 08:25:01;;;;;;;6.38;5.05;;;1.70;99.90;;;;;;5037692;28;20742;-67
2022/03/31 08:27:30;;;;;;;6.35;5.75;;;1.80;99.90;;;;;;5037760;28;20231;-66
2022/03/31 08:29:57;;;;;;;11.15;5.90;;;1.80;99.90;;;;;;5038278;28;20484;-66
2022/03/31 08:32:27;;;;;;;6.55;5.60;;;1.90;99.90;;;;;;5038212;28;20373;-68
2022/03/31 08:34:55;;;;;;;7.70;4.72;;;2.00;99.90;;;;;;5025466;28;20206;-68
2022/03/31 08:37:23;;;;;;;8.45;5.25;;;2.10;99.90;;;;;;5023837;28;20210;-68
2022/03/31 08:39:51;;;;;;;6.47;4.20;;;2.10;99.90;;;;;;5037586;28;20863;-69
2022/03/31 08:42:19;;;;;;;6.80;4.30;;;2.10;99.90;;;;;;5031650;28;20236;-66
2022/03/31 08:44:55;;;;;;;4.88;4.15;;;2.20;99.90;;;;;;5024470;28;20210;-68
2022/03/31 08:47:25;;;;;;;6.60;4.65;;;2.20;99.90;;;;;;5018561;28;20305;-69
2022/03/31 08:50:14;;;;;;;8.43;4.40;;;2.30;99.90;;;;;;5019670;28;20233;-68
2022/03/31 08:52:42;;;;;;;5.53;4.30;;;2.30;99.90;;;;;;5004829;28;20200;-69
2022/03/31 08:55:12;;;;;;;7.85;5.22;;;2.30;99.90;;;;;;5026401;28;20210;-72
2022/03/31 08:57:44;;;;;;;4.32;3.92;;;2.40;99.90;;;;;;5022203;28;20724;-68
2022/03/31 09:00:15;;;;;;;5.13;4.60;;;2.40;99.90;;;;;;5022236;28;20225;-69
2022/03/31 09:02:55;;;;;;;5.43;4.25;;;2.50;99.90;;;;;;5021977;28;20808;-67
2022/03/31 09:05:24;;;;;;;5.32;3.80;;;2.60;99.90;;;;;;5032047;28;20205;-70
2022/03/31 09:07:54;;;;;;;8.02;4.60;;;2.70;99.90;;;;;;5023025;28;20274;-68
2022/03/31 09:10:30;;;;;;;5.28;4.40;;;2.90;99.90;;;;;;5022412;28;20226;-69
2022/03/31 09:12:59;;;;;;;6.95;4.03;;;2.90;99.90;;;;;;5022519;28;20261;-69
2022/03/31 09:15:34;;;;;;;4.70;4.30;;;3.00;99.90;;;;;;5026681;28;20288;-72
2022/03/31 09:18:02;;;;;;;4.63;3.92;;;3.20;99.90;;;;;;5034025;28;20728;-66
2022/03/31 09:20:40;;;;;;;5.63;4.07;;;3.20;99.90;;;;;;5029934;28;20240;-66
2022/03/31 09:23:14;;;;;;;4.68;3.83;;;3.40;99.90;;;;;;5023289;28;20221;-68
2022/03/31 09:25:43;;;;;;;4.82;4.22;;;3.50;99.90;;;;;;5031758;28;20208;-69
2022/03/31 09:28:16;;;;;;;5.55;4.15;;;3.70;99.90;;;;;;5037583;28;20212;-69
2022/03/31 09:30:48;;;;;;;6.40;3.53;;;3.80;99.90;;;;;;5021683;28;20274;-68
2022/03/31 09:33:31;;;;;;;4.07;3.65;;;4.00;99.90;;;;;;5022707;28;20202;-69
2022/03/31 09:36:03;;;;;;;4.38;3.53;;;4.20;99.90;;;;;;5021995;28;20311;-67
2022/03/31 09:38:35;;;;;;;4.43;4.05;;;4.40;99.90;;;;;;5021088;28;20293;-67
2022/03/31 09:41:05;;;;;;;3.75;3.45;;;4.60;99.90;;;;;;5024368;28;20250;-69
2022/03/31 09:43:41;;;;;;;4.28;3.88;;;4.70;99.90;;;;;;5021703;28;20236;-68
2022/03/31 09:46:22;;;;;;;4.88;4.15;;;4.90;99.90;;;;;;5022030;28;20807;-68
2022/03/31 09:48:55;;;;;;;4.32;3.47;;;5.10;99.90;;;;;;5021821;28;20588;-69
2022/03/31 09:51:26;;;;;;;5.13;3.22;;;5.20;99.90;;;;;;5022866;28;20218;-69
2022/03/31 09:53:55;;;;;;;6.07;3.30;;;5.30;99.90;;;;;;5023108;28;20711;-69
2022/03/31 09:56:25;;;;;;;4.90;4.30;;;5.20;99.90;;;;;;5022443;28;20466;-68
2022/03/31 09:58:54;;;;;;;3.92;3.17;;;5.30;99.90;;;;;;5024610;28;20201;-69
2022/03/31 10:01:23;;;;;;;4.50;3.75;;;5.30;99.90;;;;;;5040949;28;20233;-67
2022/03/31 10:03:54;;;;;;;5.80;4.75;;;5.40;99.90;;;;;;5040296;28;20234;-69
2022/03/31 10:06:23;;;;;;;3.40;3.20;;;5.40;99.90;;;;;;5043499;28;20201;-67
2022/03/31 10:08:53;;;;;;;2.92;2.75;;;5.40;99.90;;;;;;5022629;28;20207;-68
2022/03/31 10:11:23;;;;;;;4.35;3.35;;;5.50;99.90;;;;;;5022679;28;20225;-68
2022/03/31 10:14:01;;;;;;;4.32;3.80;;;5.50;99.90;;;;;;5027357;28;20201;-66
2022/03/31 10:16:38;;;;;;;3.70;3.10;;;5.50;99.90;;;;;;5029698;28;20817;-67
2022/03/31 10:19:06;;;;;;;5.57;4.47;;;5.50;99.90;;;;;;5030379;28;20343;-69
2022/03/31 10:21:34;;;;;;;3.30;3.08;;;5.50;99.90;;;;;;5020774;28;20222;-69
2022/03/31 10:27:01;;;;;;;3.40;3.17;;;5.70;99.90;;;;;;5027485;28;20205;-69
2022/03/31 10:29:39;;;;;;;6.25;2.95;;;5.60;99.90;;;;;;5034562;28;20202;-69
2022/03/31 10:32:21;;;;;;;4.15;3.75;;;5.70;99.90;;;;;;5021423;28;20259;-68
2022/03/31 10:34:51;;;;;;;6.35;3.10;;;6.00;99.90;;;;;;5029685;28;20212;-69
2022/03/31 10:37:32;;;;;;;3.80;3.22;;;6.10;99.90;;;;;;5024408;28;20202;-69
2022/03/31 10:40:04;;;;;;;4.75;4.03;;;6.30;99.90;;;;;;5041665;28;20221;-69
2022/03/31 10:42:32;;;;;;;5.10;3.60;;;6.40;99.90;;;;;;5041114;28;20206;-68
2022/03/31 10:45:12;;;;;;;3.83;3.45;;;6.50;99.90;;;;;;5041592;28;20275;-68
2022/03/31 10:47:41;;;;;;;3.75;2.70;;;6.50;99.90;;;;;;5036166;28;20337;-68
2022/03/31 10:50:22;;;;;;;3.00;2.70;;;6.40;99.90;;;;;;5021092;28;20519;-69
2022/03/31 10:52:59;;;;;;;4.97;3.10;;;6.40;99.90;;;;;;5021349;28;20772;-69
2022/03/31 10:55:37;;;;;;;4.05;3.33;;;6.50;99.90;;;;;;5021063;28;20820;-68
2022/03/31 10:58:06;;;;;;;2.67;2.45;;;6.60;99.90;;;;;;5026777;28;20286;-69
2022/03/31 11:00:36;;;;;;;3.20;2.03;;;6.60;99.90;;;;;;5025111;28;20230;-67
2022/03/31 11:03:05;;;;;;;9.00;2.42;;;6.60;99.90;;;;;;5021970;28;20701;-67
2022/03/31 11:05:45;;;;;;;2.20;2.10;;;6.70;99.90;;;;;;5034169;28;20231;-69
2022/03/31 11:08:17;;;;;;;3.65;2.22;;;6.70;99.90;;;;;;5023012;28;20281;-68
2022/03/31 11:10:49;;;;;;;6.35;2.20;;;6.70;99.90;;;;;;5027395;28;20579;-67
2022/03/31 11:13:18;;;;;;;2.10;1.90;;;6.60;99.90;;;;;;5028411;28;20578;-73
2022/03/31 11:15:56;;;;;;;2.20;2.00;;;6.60;99.90;;;;;;5040786;28;20209;-69
2022/03/31 11:18:25;;;;;;;2.35;2.25;;;6.70;99.90;;;;;;5041288;28;20266;-70
2022/03/31 11:20:56;;;;;;;1.98;1.88;;;6.70;99.90;;;;;;5029045;28;20733;-70
2022/03/31 11:23:26;;;;;;;1.98;1.80;;;6.70;99.90;;;;;;5020748;28;20876;-72
2022/03/31 11:25:56;;;;;;;4.55;2.53;;;6.80;99.90;;;;;;5020122;28;20228;-71
2022/03/31 11:28:28;;;;;;;2.50;1.85;;;6.90;99.90;;;;;;5019357;28;20219;-72
2022/03/31 11:30:59;;;;;;;2.63;2.03;;;7.00;99.90;;;;;;5019948;28;20222;-71
2022/03/31 11:33:35;;;;;;;2.42;2.08;;;7.00;99.90;;;;;;5020276;28;20843;-71
2022/03/31 11:36:04;;;;;;;3.78;2.05;;;7.10;99.90;;;;;;5033425;28;20291;-71
2022/03/31 11:38:32;;;;;;;2.10;2.00;;;7.20;99.90;;;;;;5039687;28;20201;-69
2022/03/31 11:41:02;;;;;;;3.80;1.75;;;7.20;99.90;;;;;;5034963;28;20317;-69
2022/03/31 11:43:32;;;;;;;2.55;1.73;;;7.20;99.90;;;;;;5032906;28;20309;-69
2022/03/31 11:46:00;;;;;;;1.80;1.70;;;7.20;99.90;;;;;;5022752;28;20834;-69
2022/03/31 11:48:33;;;;;;;2.05;1.70;;;7.40;99.90;;;;;;5018224;28;20197;-70
2022/03/31 11:51:03;;;;;;;2.13;2.00;;;7.50;99.80;;;;;;5018689;28;20319;-70
2022/03/31 11:53:36;;;;;;;1.95;1.83;;;7.50;99.90;;;;;;5019227;28;20609;-70
2022/03/31 11:56:09;;;;;;;4.60;1.73;;;7.40;99.80;;;;;;5018433;28;20198;-70
2022/03/31 11:58:45;;;;;;;2.40;1.55;;;7.50;99.90;;;;;;5028398;28;20357;-69
2022/03/31 12:01:13;;;;;;;2.20;2.08;;;7.60;99.20;;;;;;5038484;28;20217;-70
2022/03/31 12:03:41;;;;;;;1.27;1.23;;;7.60;98.50;;;;;;5038427;28;20245;-69
2022/03/31 12:06:10;;;;;;;1.83;1.60;;;7.70;98.80;;;;;;5038844;28;20341;-69
2022/03/31 12:08:39;;;;;;;1.85;1.70;;;7.80;99.00;;;;;;5037883;28;20300;-70
2022/03/31 12:11:09;;;;;;;1.42;1.33;;;7.90;97.40;;;;;;5038712;28;20237;-70
2022/03/31 12:13:48;;;;;;;2.60;1.40;;;7.90;97.10;;;;;;5038654;28;20293;-69
2022/03/31 12:16:15;;;;;;;3.22;1.80;;;7.90;97.50;;;;;;5039306;28;20216;-69
2022/03/31 12:18:44;;;;;;;2.05;1.80;;;8.00;98.60;;;;;;5039632;28;20759;-69
2022/03/31 12:21:12;;;;;;;5.22;1.35;;;8.00;97.00;;;;;;5042771;28;20224;-70
2022/03/31 12:23:44;;;;;;;2.05;1.42;;;8.00;96.50;;;;;;5039010;28;20560;-70
2022/03/31 12:26:34;;;;;;;2.55;2.40;;;8.00;95.80;;;;;;5042766;28;20268;-69
2022/03/31 12:29:02;;;;;;;2.88;1.25;;;8.00;96.20;;;;;;5043372;28;20212;-70
2022/03/31 12:31:31;;;;;;;2.45;2.25;;;8.10;94.30;;;;;;5044807;28;20222;-70
2022/03/31 12:34:00;;;;;;;1.70;1.60;;;8.10;93.70;;;;;;5043669;28;20232;-70
2022/03/31 12:36:31;;;;;;;5.38;1.30;;;8.00;93.20;;;;;;5043135;28;20820;-70
2022/03/31 12:39:02;;;;;;;1.13;1.13;;;7.90;93.00;;;;;;5042504;28;20647;-73
2022/03/31 12:41:34;;;;;;;1.15;1.15;;;7.80;93.10;;;;;;5042650;28;20766;-67
2022/03/31 12:44:07;;;;;;;1.90;1.30;;;7.90;92.50;;;;;;5042055;28;20213;-71
2022/03/31 12:46:38;;;;;;;1.27;1.17;;;8.00;92.50;;;;;;5041196;28;20206;-70
2022/03/31 12:49:09;;;;;;;1.45;1.35;;;8.10;93.50;;;;;;5040939;28;20224;-71
2022/03/31 12:51:46;;;;;;;1.77;1.65;;;8.10;93.70;;;;;;5040734;28;20229;-71
2022/03/31 12:54:21;;;;;;;1.25;1.15;;;8.20;92.60;;;;;;5040601;28;20193;-70
2022/03/31 12:56:51;;;;;;;1.77;1.67;;;8.10;91.60;;;;;;5040804;28;20201;-69
2022/03/31 12:59:23;;;;;;;1.35;1.25;;;8.20;92.10;;;;;;5041407;28;20205;-68
2022/03/31 13:02:02;;;;;;;3.90;1.50;;;8.30;92.20;;;;;;5041853;28;20221;-70
2022/03/31 13:04:31;;;;;;;1.45;1.05;;;8.40;92.20;;;;;;5042048;28;20227;-69
2022/03/31 13:06:59;;;;;;;1.30;1.20;;;8.40;91.50;;;;;;5041866;28;20193;-68
2022/03/31 13:09:27;;;;;;;2.67;2.15;;;8.40;91.70;;;;;;5042463;28;20202;-69
2022/03/31 13:11:56;;;;;;;1.23;1.13;;;8.40;90.30;;;;;;5042865;28;20232;-69
2022/03/31 13:14:26;;;;;;;2.05;0.73;;;8.30;89.50;;;;;;5042684;28;20202;-66